RPA5844 KSYR-KLGA
Flight info
| Callsign | RPA5844 |
|---|---|
| Flight time | N/A |
| Altitude | 17000 |
| Route | SYR T634 RAHKS VADDR1 |
| Aircraft | CRJ9/M-V/N |
Departure
| Time | 2026-04-24 00:28 |
|---|---|
| Airport | Syracuse Hancock International Airport (KSYR) |
Arrival
| Time | N/A |
|---|---|
| Airport | LaGuardia Airport (KLGA) |
| Time | Latitude | Longitude | Altitude | Speed | Heading |
|---|---|---|---|---|---|
| 2026-04-24 00:04 | 43.11440 | -76.10962 | 420 ft | 0 kts | 322° |
| 2026-04-24 00:11 | 43.11439 | -76.10962 | 420 ft | 0 kts | 322° |
| 2026-04-24 00:14 | 43.11426 | -76.10954 | 413 ft | 2 kts | 359° |
| 2026-04-24 00:14 | 43.11410 | -76.10962 | 417 ft | 2 kts | 42° |
| 2026-04-24 00:14 | 43.11401 | -76.10980 | 422 ft | 2 kts | 67° |
| 2026-04-24 00:14 | 43.11398 | -76.10993 | 417 ft | 1 kts | 80° |
| 2026-04-24 00:15 | 43.11398 | -76.10994 | 417 ft | 0 kts | 81° |
| 2026-04-24 00:20 | 43.11398 | -76.10993 | 417 ft | 1 kts | 81° |
| 2026-04-24 00:20 | 43.11398 | -76.10959 | 413 ft | 6 kts | 90° |
| 2026-04-24 00:21 | 43.11398 | -76.10872 | 417 ft | 12 kts | 90° |
| 2026-04-24 00:21 | 43.11405 | -76.10741 | 410 ft | 15 kts | 87° |
| 2026-04-24 00:21 | 43.11410 | -76.10584 | 416 ft | 18 kts | 88° |
| 2026-04-24 00:21 | 43.11353 | -76.10431 | 411 ft | 20 kts | 134° |
| 2026-04-24 00:22 | 43.11249 | -76.10285 | 412 ft | 22 kts | 134° |
| 2026-04-24 00:22 | 43.11139 | -76.10128 | 408 ft | 21 kts | 134° |
| 2026-04-24 00:22 | 43.11041 | -76.09990 | 407 ft | 15 kts | 123° |
| 2026-04-24 00:22 | 43.11033 | -76.09915 | 406 ft | 0 kts | 86° |
| 2026-04-24 00:23 | 43.11033 | -76.09907 | 406 ft | 3 kts | 88° |
| 2026-04-24 00:23 | 43.11035 | -76.09862 | 406 ft | 6 kts | 88° |
| 2026-04-24 00:24 | 43.11037 | -76.09789 | 407 ft | 9 kts | 88° |
| 2026-04-24 00:24 | 43.11040 | -76.09703 | 410 ft | 9 kts | 87° |
| 2026-04-24 00:24 | 43.11043 | -76.09607 | 411 ft | 11 kts | 87° |
| 2026-04-24 00:24 | 43.11046 | -76.09489 | 412 ft | 14 kts | 88° |
| 2026-04-24 00:25 | 43.11051 | -76.09346 | 413 ft | 13 kts | 89° |
| 2026-04-24 00:25 | 43.11028 | -76.09275 | 414 ft | 1 kts | 149° |
| 2026-04-24 00:25 | 43.11007 | -76.09269 | 410 ft | 6 kts | 174° |
| 2026-04-24 00:25 | 43.10945 | -76.09272 | 414 ft | 9 kts | 208° |
| 2026-04-24 00:26 | 43.10929 | -76.09315 | 408 ft | 1 kts | 268° |
| 2026-04-24 00:27 | 43.10929 | -76.09328 | 411 ft | 12 kts | 268° |
| 2026-04-24 00:28 | 43.10914 | -76.09829 | 407 ft | 95 kts | 268° |
| 2026-04-24 00:28 | 43.10877 | -76.11058 | 422 ft | 160 kts | 270° |
| 2026-04-24 00:28 | 43.10823 | -76.12705 | 990 ft | 180 kts | 268° |
| 2026-04-24 00:28 | 43.10751 | -76.14409 | 2112 ft | 179 kts | 269° |
| 2026-04-24 00:29 | 43.10639 | -76.16151 | 3089 ft | 195 kts | 269° |
| 2026-04-24 00:29 | 43.10499 | -76.18144 | 3639 ft | 230 kts | 268° |
| 2026-04-24 00:29 | 43.10337 | -76.20538 | 3965 ft | 270 kts | 268° |
| 2026-04-24 00:29 | 43.10158 | -76.23018 | 5531 ft | 255 kts | 269° |
| 2026-04-24 00:30 | 43.09913 | -76.25406 | 6850 ft | 256 kts | 261° |
| 2026-04-24 00:30 | 43.09009 | -76.27561 | 8011 ft | 274 kts | 232° |
| 2026-04-24 00:30 | 43.07322 | -76.28938 | 9097 ft | 296 kts | 205° |
| 2026-04-24 00:30 | 43.05199 | -76.29211 | 10014 ft | 321 kts | 180° |
| 2026-04-24 00:31 | 43.03070 | -76.28353 | 10369 ft | 321 kts | 156° |
| 2026-04-24 00:31 | 43.01296 | -76.26505 | 10345 ft | 322 kts | 135° |
| 2026-04-24 00:31 | 42.99730 | -76.24302 | 10327 ft | 324 kts | 133° |
| 2026-04-24 00:31 | 42.98295 | -76.21936 | 10328 ft | 324 kts | 126° |
| 2026-04-24 00:32 | 42.96963 | -76.19447 | 10286 ft | 326 kts | 124° |
| 2026-04-24 00:32 | 42.95664 | -76.16871 | 10223 ft | 333 kts | 123° |
| 2026-04-24 00:32 | 42.94358 | -76.14228 | 10135 ft | 339 kts | 122° |
| 2026-04-24 00:32 | 42.93048 | -76.11523 | 10073 ft | 344 kts | 122° |
| 2026-04-24 00:33 | 42.91765 | -76.08833 | 10040 ft | 343 kts | 122° |
| 2026-04-24 00:33 | 42.90438 | -76.06140 | 10034 ft | 342 kts | 124° |
| 2026-04-24 00:33 | 42.89064 | -76.03500 | 10026 ft | 341 kts | 125° |
| 2026-04-24 00:33 | 42.87678 | -76.00883 | 10025 ft | 340 kts | 125° |
| 2026-04-24 00:34 | 42.86302 | -75.98274 | 10018 ft | 339 kts | 124° |
| 2026-04-24 00:34 | 42.84931 | -75.95671 | 10009 ft | 338 kts | 124° |
| 2026-04-24 00:34 | 42.83567 | -75.93078 | 10012 ft | 337 kts | 125° |
| 2026-04-24 00:34 | 42.82202 | -75.90485 | 10012 ft | 336 kts | 125° |
| 2026-04-24 00:35 | 42.80830 | -75.87902 | 10014 ft | 337 kts | 125° |
| 2026-04-24 00:35 | 42.79457 | -75.85299 | 10003 ft | 344 kts | 125° |
| 2026-04-24 00:35 | 42.78015 | -75.82574 | 10332 ft | 365 kts | 124° |
| 2026-04-24 00:35 | 42.76489 | -75.79709 | 10760 ft | 382 kts | 124° |
| 2026-04-24 00:36 | 42.74892 | -75.76739 | 11277 ft | 395 kts | 124° |
| 2026-04-24 00:36 | 42.73261 | -75.73683 | 11972 ft | 402 kts | 124° |
| 2026-04-24 00:36 | 42.71616 | -75.70590 | 12718 ft | 407 kts | 123° |
| 2026-04-24 00:36 | 42.70518 | -75.68513 | 13194 ft | 411 kts | 122° |
| 2026-04-24 00:37 | 42.68841 | -75.65337 | 13889 ft | 417 kts | 122° |
| 2026-04-24 00:37 | 42.67143 | -75.62113 | 14566 ft | 421 kts | 122° |
| 2026-04-24 00:37 | 42.64856 | -75.57752 | 15488 ft | 426 kts | 123° |
| 2026-04-24 00:37 | 42.63705 | -75.55577 | 15935 ft | 429 kts | 123° |
| 2026-04-24 00:38 | 42.61943 | -75.52270 | 16509 ft | 434 kts | 124° |
| 2026-04-24 00:38 | 42.60167 | -75.48960 | 16791 ft | 435 kts | 124° |
| 2026-04-24 00:38 | 42.58378 | -75.45621 | 16913 ft | 440 kts | 124° |
| 2026-04-24 00:38 | 42.56568 | -75.42242 | 16954 ft | 446 kts | 124° |
| 2026-04-24 00:39 | 42.54731 | -75.38809 | 16978 ft | 453 kts | 124° |
| 2026-04-24 00:39 | 42.52870 | -75.35333 | 16997 ft | 458 kts | 124° |
| 2026-04-24 00:39 | 42.51000 | -75.31839 | 16993 ft | 457 kts | 124° |
| 2026-04-24 00:39 | 42.49142 | -75.28362 | 16988 ft | 454 kts | 124° |
| 2026-04-24 00:40 | 42.47290 | -75.24902 | 16997 ft | 453 kts | 124° |
| 2026-04-24 00:40 | 42.45442 | -75.21454 | 16996 ft | 452 kts | 124° |
| 2026-04-24 00:40 | 42.43600 | -75.18020 | 16996 ft | 450 kts | 124° |
| 2026-04-24 00:40 | 42.41764 | -75.14595 | 16991 ft | 448 kts | 124° |
| 2026-04-24 00:41 | 42.39938 | -75.11198 | 17009 ft | 445 kts | 124° |
| 2026-04-24 00:41 | 42.38121 | -75.07815 | 17008 ft | 443 kts | 124° |
| 2026-04-24 00:41 | 42.36313 | -75.04449 | 16999 ft | 441 kts | 124° |
| 2026-04-24 00:41 | 42.34519 | -75.01112 | 17005 ft | 437 kts | 124° |
| 2026-04-24 00:42 | 42.32737 | -74.97799 | 17007 ft | 434 kts | 124° |
| 2026-04-24 00:42 | 42.31072 | -74.94426 | 16984 ft | 428 kts | 112° |
| 2026-04-24 00:42 | 42.30257 | -74.90653 | 16983 ft | 412 kts | 88° |
| 2026-04-24 00:42 | 42.30290 | -74.86864 | 16979 ft | 403 kts | 83° |
| 2026-04-24 00:43 | 42.29799 | -74.83072 | 17005 ft | 419 kts | 104° |
| 2026-04-24 00:43 | 42.28606 | -74.79449 | 17009 ft | 423 kts | 110° |
| 2026-04-24 00:43 | 42.27659 | -74.75719 | 17023 ft | 418 kts | 99° |